Rolling Meadows, Illinois
Current Conditions -  °F | °C
As of 6:52 AM on Sunday 23 Nov 2014 (Local Time) from KPWK Reporting Station
Broken Clouds Broken Clouds  
Wind Chill: 43°   Ceiling: 4100
Heat Index: 48°   Visibility: 10mi
Dew Point: 42°   Wind: 10mph
Humidity: 80%   Direction: 180°S
Pressure: 29.76"   Gusts: NA
Location:  42.08°N, 88.03°W
Report Text: KPWK 231252Z 18009KT 10SM BKN041 09/06 A2976 RMK AO2 SLP079 T00890056
Loading
Personal Weather Stations






























Interactive Weather Map New forecast layout! Learn more

10-Day Weather Forecast

Advertisements
Track Severe Weather on mobile